Time;durP1;ratioP1;P1;durP2;ratioP2;P2;SDS_P1;SDS_P2;PMS_P1;PMS_P2;Temp;Humidity;BMP_temperature;BMP_pressure;BME280_temperature;BME280_humidity;BME280_pressure;Samples;Min_cycle;Max_cycle;Signal;HPM_P1;HPM_P2
2023/11/15 00:00:08;;;;;;;0.40;0.40;;;8.30;99.90;;;;;;5028717;28;20052;-84
2023/11/15 00:02:35;;;;;;;0.35;0.35;;;8.20;99.90;;;;;;5027367;28;20099;-82
2023/11/15 00:05:04;;;;;;;0.40;0.40;;;8.20;99.90;;;;;;5046558;28;20036;-84
2023/11/15 00:07:33;;;;;;;0.40;0.40;;;8.20;99.90;;;;;;5028075;28;20049;-82
2023/11/15 00:09:58;;;;;;;0.30;0.30;;;8.20;99.90;;;;;;5054904;28;20041;-82
2023/11/15 00:12:27;;;;;;;0.30;0.30;;;8.20;99.90;;;;;;5009525;28;20068;-84
2023/11/15 00:14:53;;;;;;;0.90;0.90;;;8.20;99.90;;;;;;5036617;28;20494;-83
2023/11/15 00:17:19;;;;;;;0.60;0.60;;;8.20;99.90;;;;;;5020520;28;20043;-85
2023/11/15 00:19:45;;;;;;;0.40;0.40;;;8.20;99.90;;;;;;5005978;28;20061;-85
2023/11/15 00:22:14;;;;;;;0.50;0.50;;;8.20;99.90;;;;;;5019473;28;20037;-85
2023/11/15 00:24:41;;;;;;;0.40;0.40;;;8.20;99.90;;;;;;5022022;28;20399;-85
2023/11/15 00:27:08;;;;;;;0.52;0.52;;;8.20;99.90;;;;;;5015604;28;20051;-84
2023/11/15 00:29:34;;;;;;;0.30;0.30;;;8.30;99.90;;;;;;5034496;28;20033;-84
2023/11/15 00:31:59;;;;;;;0.38;0.38;;;8.10;99.90;;;;;;5057253;28;20090;-83
2023/11/15 00:34:25;;;;;;;0.32;0.32;;;8.10;99.90;;;;;;5024069;28;20071;-84
2023/11/15 00:36:53;;;;;;;;;;;8.10;99.90;;;;;;5022978;28;20037;-84
2023/11/15 00:39:19;;;;;;;;;;;8.20;99.90;;;;;;5029833;28;19967;-83
2023/11/15 00:41:45;;;;;;;0.30;0.30;;;8.10;99.90;;;;;;5033177;28;20176;-86
2023/11/15 00:44:11;;;;;;;0.40;0.40;;;8.10;99.90;;;;;;5030997;28;20049;-83
2023/11/15 00:46:37;;;;;;;0.45;0.45;;;8.10;99.90;;;;;;5052629;28;20045;-86
2023/11/15 00:49:03;;;;;;;0.40;0.40;;;8.10;99.90;;;;;;5040318;28;20084;-84
2023/11/15 00:51:29;;;;;;;;;;;8.10;99.90;;;;;;5037570;28;20115;-84
2023/11/15 00:53:55;;;;;;;0.38;0.38;;;8.10;99.90;;;;;;5015030;28;19920;-83
2023/11/15 00:56:21;;;;;;;0.52;0.52;;;8.10;99.90;;;;;;5050705;28;20041;-83
2023/11/15 00:58:46;;;;;;;0.30;0.30;;;8.20;99.90;;;;;;5061232;28;20052;-83
2023/11/15 01:01:12;;;;;;;0.52;0.52;;;8.10;99.90;;;;;;5020478;28;20045;-83
2023/11/15 01:03:55;;;;;;;0.40;0.40;;;8.20;99.90;;;;;;5044278;28;20052;-84
2023/11/15 01:06:22;;;;;;;0.60;0.60;;;8.10;99.90;;;;;;5030488;28;20099;-82
2023/11/15 01:08:47;;;;;;;0.47;0.47;;;8.10;99.90;;;;;;5036438;28;20116;-83
2023/11/15 01:11:13;;;;;;;0.40;0.40;;;8.10;99.90;;;;;;5020741;28;20123;-82
2023/11/15 01:13:39;;;;;;;0.40;0.40;;;8.10;99.90;;;;;;5055717;28;20071;-83
2023/11/15 01:16:05;;;;;;;0.50;0.50;;;8.10;99.90;;;;;;5032805;28;20513;-83
2023/11/15 01:18:31;;;;;;;0.30;0.30;;;8.10;99.90;;;;;;5013086;28;20051;-85
2023/11/15 01:20:56;;;;;;;0.50;0.50;;;8.10;99.90;;;;;;5028400;28;20067;-83
2023/11/15 01:23:22;;;;;;;0.30;0.30;;;8.10;99.90;;;;;;5028177;28;20076;-82
2023/11/15 01:25:49;;;;;;;0.30;0.30;;;8.10;99.90;;;;;;5042611;28;20136;-83
2023/11/15 01:28:14;;;;;;;0.40;0.40;;;8.10;99.90;;;;;;5034594;28;20120;-84
2023/11/15 01:30:40;;;;;;;1.20;1.15;;;8.00;99.90;;;;;;5022851;28;20124;-84
2023/11/15 01:33:06;;;;;;;0.40;0.40;;;8.10;99.90;;;;;;5060487;28;20062;-84
2023/11/15 01:35:32;;;;;;;0.45;0.45;;;8.00;99.90;;;;;;5035768;28;20434;-83
2023/11/15 01:37:58;;;;;;;0.30;0.30;;;8.00;99.90;;;;;;5051903;28;20052;-82
2023/11/15 01:40:25;;;;;;;0.52;0.52;;;8.00;99.90;;;;;;5057558;28;20040;-82
2023/11/15 01:42:51;;;;;;;0.55;0.55;;;8.00;99.90;;;;;;5025328;28;20124;-84
2023/11/15 01:45:17;;;;;;;0.30;0.30;;;8.00;99.90;;;;;;5030527;28;20069;-84
2023/11/15 01:47:43;;;;;;;0.40;0.40;;;8.10;99.90;;;;;;5036595;28;20076;-84
2023/11/15 01:50:13;;;;;;;0.68;0.68;;;8.00;99.90;;;;;;5050374;28;20045;-85
2023/11/15 01:52:40;;;;;;;0.40;0.40;;;8.10;99.90;;;;;;5043976;28;20444;-85
2023/11/15 01:55:10;;;;;;;0.45;0.45;;;8.10;99.90;;;;;;5040913;28;20041;-84
2023/11/15 01:57:37;;;;;;;0.40;0.40;;;8.10;99.90;;;;;;5013562;28;20037;-84
2023/11/15 02:00:06;;;;;;;0.22;0.22;;;8.10;99.90;;;;;;5041168;28;20099;-86
2023/11/15 02:02:32;;;;;;;0.70;0.70;;;8.20;99.90;;;;;;5046064;28;20087;-86
2023/11/15 02:04:58;;;;;;;0.40;0.40;;;8.20;99.90;;;;;;5016529;28;20044;-85
2023/11/15 02:07:23;;;;;;;0.47;0.47;;;8.10;99.90;;;;;;5049064;28;20044;-83
2023/11/15 02:09:49;;;;;;;0.47;0.47;;;8.10;99.90;;;;;;5017337;28;20042;-86
2023/11/15 02:12:19;;;;;;;0.40;0.40;;;8.10;99.90;;;;;;5014940;28;20075;-86
2023/11/15 02:14:44;;;;;;;0.30;0.30;;;8.10;99.90;;;;;;5043667;28;20047;-85
2023/11/15 02:17:10;;;;;;;0.52;0.52;;;8.10;99.90;;;;;;5056664;28;20080;-85
2023/11/15 02:19:37;;;;;;;0.40;0.40;;;8.10;99.90;;;;;;5053044;28;20044;-86
2023/11/15 02:22:03;;;;;;;0.30;0.30;;;8.10;99.90;;;;;;5040411;28;20044;-85
2023/11/15 02:24:29;;;;;;;0.30;0.30;;;8.10;99.90;;;;;;5038702;28;20083;-84
2023/11/15 02:26:56;;;;;;;0.40;0.40;;;8.10;99.90;;;;;;5023621;28;20036;-83
2023/11/15 02:29:22;;;;;;;0.40;0.40;;;8.10;99.90;;;;;;5051443;28;20045;-85
2023/11/15 02:31:48;;;;;;;0.50;0.50;;;8.10;99.90;;;;;;5033677;28;20040;-84
2023/11/15 02:34:14;;;;;;;0.40;0.40;;;8.10;99.90;;;;;;5022136;28;20071;-87
2023/11/15 02:36:40;;;;;;;0.32;0.32;;;8.20;99.90;;;;;;5042174;28;20065;-85
2023/11/15 02:39:08;;;;;;;0.50;0.50;;;8.20;99.90;;;;;;5025701;28;20103;-86
2023/11/15 02:41:35;;;;;;;0.40;0.40;;;8.20;99.90;;;;;;5055627;28;20047;-84
2023/11/15 02:44:00;;;;;;;;;;;8.20;99.90;;;;;;5054171;28;20041;-84
2023/11/15 02:46:26;;;;;;;0.30;0.30;;;8.20;99.90;;;;;;5040626;28;20015;-86
2023/11/15 02:48:52;;;;;;;0.40;0.40;;;8.40;99.90;;;;;;5025996;28;20131;-85
2023/11/15 02:51:18;;;;;;;0.40;0.40;;;8.30;99.90;;;;;;5037989;28;20043;-85
2023/11/15 02:53:44;;;;;;;0.40;0.40;;;8.20;99.90;;;;;;5039902;28;20036;-86
2023/11/15 02:56:10;;;;;;;0.40;0.40;;;8.20;99.90;;;;;;5027553;28;20096;-87
2023/11/15 02:58:36;;;;;;;1.23;1.15;;;8.20;99.90;;;;;;5030796;28;20048;-85
2023/11/15 03:01:07;;;;;;;0.45;0.45;;;8.20;99.90;;;;;;5013191;28;20052;-84
2023/11/15 03:03:35;;;;;;;0.50;0.50;;;8.20;99.90;;;;;;5043730;28;20470;-82
2023/11/15 03:06:01;;;;;;;0.43;0.43;;;8.20;99.90;;;;;;5048971;28;20064;-84
2023/11/15 03:08:27;;;;;;;;;;;8.20;99.90;;;;;;5030447;28;20063;-84
2023/11/15 03:10:56;;;;;;;0.40;0.40;;;8.30;99.90;;;;;;5056269;28;19928;-84
2023/11/15 03:13:21;;;;;;;0.30;0.30;;;8.60;99.90;;;;;;5027521;28;20399;-84
2023/11/15 03:15:48;;;;;;;0.40;0.40;;;8.30;99.90;;;;;;5056303;28;20048;-85
2023/11/15 03:18:14;;;;;;;0.40;0.40;;;8.30;99.90;;;;;;5040101;28;20067;-87
2023/11/15 03:20:41;;;;;;;0.30;0.30;;;8.20;99.90;;;;;;5040754;28;20040;-86
2023/11/15 03:23:12;;;;;;;0.30;0.30;;;8.30;99.90;;;;;;5026991;28;20052;-86
2023/11/15 03:25:38;;;;;;;0.45;0.45;;;8.30;99.90;;;;;;5056032;28;20037;-86
2023/11/15 03:28:05;;;;;;;0.40;0.40;;;8.20;99.90;;;;;;5008039;28;20068;-86
2023/11/15 03:30:31;;;;;;;0.35;0.35;;;8.30;99.90;;;;;;5051739;28;20396;-85
2023/11/15 03:32:58;;;;;;;0.50;0.50;;;8.20;99.90;;;;;;5032852;28;20032;-86
2023/11/15 03:35:32;;;;;;;0.50;0.50;;;8.20;99.90;;;;;;5043590;28;20044;-86
2023/11/15 03:37:58;;;;;;;0.30;0.30;;;8.20;99.90;;;;;;5055082;28;21885;-84
2023/11/15 03:40:24;;;;;;;0.40;0.40;;;8.20;99.90;;;;;;5051974;28;20065;-83
2023/11/15 03:42:50;;;;;;;0.40;0.40;;;8.10;99.90;;;;;;5020884;28;20037;-85
2023/11/15 03:45:16;;;;;;;0.40;0.40;;;8.10;99.90;;;;;;5038221;28;20048;-84
2023/11/15 03:47:48;;;;;;;0.40;0.40;;;8.10;99.90;;;;;;5023592;28;20048;-86
2023/11/15 03:50:14;;;;;;;0.40;0.40;;;8.00;99.90;;;;;;5042292;28;20033;-85
2023/11/15 03:52:40;;;;;;;0.30;0.30;;;8.00;99.90;;;;;;5023713;28;20037;-85
2023/11/15 03:55:07;;;;;;;0.40;0.40;;;7.90;99.90;;;;;;5048403;28;20049;-85
2023/11/15 03:57:34;;;;;;;1.67;1.58;;;7.90;99.90;;;;;;5072949;28;20033;-83
2023/11/15 04:00:00;;;;;;;0.40;0.40;;;7.90;99.90;;;;;;5022231;28;20040;-85
2023/11/15 04:02:29;;;;;;;0.38;0.38;;;7.80;99.90;;;;;;5026697;28;20036;-86
2023/11/15 04:04:55;;;;;;;0.38;0.38;;;7.80;99.90;;;;;;5032345;28;20406;-85
2023/11/15 04:07:21;;;;;;;;;;;7.70;99.90;;;;;;5054635;28;20087;-85
2023/11/15 04:09:49;;;;;;;0.40;0.40;;;7.70;99.90;;;;;;5047856;28;19916;-85
2023/11/15 04:12:16;;;;;;;0.40;0.40;;;7.70;99.90;;;;;;5028014;28;20479;-85
2023/11/15 04:14:47;;;;;;;0.50;0.50;;;7.60;99.90;;;;;;5023471;28;20374;-86
2023/11/15 04:17:14;;;;;;;0.50;0.50;;;7.60;99.90;;;;;;5054647;28;20115;-86
2023/11/15 04:19:39;;;;;;;0.40;0.40;;;7.60;99.90;;;;;;5035769;28;20040;-84
2023/11/15 04:22:06;;;;;;;0.40;0.40;;;7.50;99.90;;;;;;5025745;28;20161;-84
2023/11/15 04:24:32;;;;;;;0.30;0.30;;;7.50;99.90;;;;;;5040491;28;20096;-85
2023/11/15 04:26:59;;;;;;;0.25;0.25;;;7.50;99.90;;;;;;5043115;28;20068;-81
2023/11/15 04:29:25;;;;;;;0.85;0.85;;;7.50;99.90;;;;;;5038610;28;20174;-87
2023/11/15 04:31:50;;;;;;;0.80;0.68;;;7.50;99.90;;;;;;5032523;28;20040;-87
2023/11/15 04:34:19;;;;;;;0.30;0.30;;;7.50;99.90;;;;;;5029533;28;20040;-85
2023/11/15 04:36:47;;;;;;;0.63;0.63;;;7.50;99.90;;;;;;5023004;28;20094;-86
2023/11/15 04:39:13;;;;;;;0.30;0.30;;;7.50;99.90;;;;;;5008796;28;20041;-86
2023/11/15 04:41:39;;;;;;;0.30;0.30;;;7.50;99.90;;;;;;4998605;28;20041;-84
2023/11/15 04:44:04;;;;;;;0.40;0.40;;;7.40;99.90;;;;;;5038776;28;20164;-85
2023/11/15 04:46:34;;;;;;;0.30;0.30;;;7.50;99.90;;;;;;5055389;28;20124;-84
2023/11/15 04:49:00;;;;;;;0.40;0.40;;;7.40;99.90;;;;;;5042987;28;20039;-82
2023/11/15 04:51:26;;;;;;;0.40;0.40;;;;;;;;;;5020806;28;20564;-83
2023/11/15 04:53:52;;;;;;;0.50;0.50;;;;;;;;;;5028339;28;20040;-86
2023/11/15 04:56:22;;;;;;;0.30;0.30;;;7.20;99.90;;;;;;5035671;28;20045;-85
2023/11/15 04:58:49;;;;;;;0.52;0.52;;;7.50;99.90;;;;;;5041928;28;20096;-84
2023/11/15 05:01:15;;;;;;;0.43;0.43;;;7.10;99.90;;;;;;5039207;28;20079;-84
2023/11/15 05:03:40;;;;;;;0.40;0.40;;;6.90;99.90;;;;;;5039254;28;20033;-83
2023/11/15 05:06:07;;;;;;;0.43;0.43;;;7.00;99.90;;;;;;5043781;28;20044;-86
2023/11/15 05:08:33;;;;;;;0.40;0.40;;;6.90;99.90;;;;;;5038643;28;20111;-84
2023/11/15 05:10:59;;;;;;;0.50;0.50;;;6.90;99.90;;;;;;5025289;28;20052;-85
2023/11/15 05:13:25;;;;;;;0.50;0.50;;;6.90;99.90;;;;;;5033058;28;20041;-87
2023/11/15 05:15:50;;;;;;;0.50;0.50;;;6.90;99.90;;;;;;5033425;28;20121;-86
2023/11/15 05:18:16;;;;;;;1.02;1.02;;;6.80;99.90;;;;;;5042387;28;20033;-85
2023/11/15 05:20:43;;;;;;;;;;;6.80;99.90;;;;;;5039800;28;20041;-84
2023/11/15 05:23:09;;;;;;;0.52;0.52;;;6.80;99.90;;;;;;5019830;28;19920;-83
2023/11/15 05:25:36;;;;;;;0.47;0.47;;;6.80;99.90;;;;;;5040537;28;20795;-84
2023/11/15 05:28:05;;;;;;;0.50;0.50;;;6.80;99.90;;;;;;5020748;28;20107;-84
2023/11/15 05:30:30;;;;;;;0.50;0.50;;;6.70;99.90;;;;;;5018269;28;20115;-82
2023/11/15 05:32:57;;;;;;;0.40;0.40;;;6.80;99.90;;;;;;5020652;28;20044;-83
2023/11/15 05:35:28;;;;;;;0.43;0.43;;;6.80;99.90;;;;;;5032772;28;20598;-83
2023/11/15 05:37:54;;;;;;;0.40;0.40;;;6.80;99.90;;;;;;5030802;28;20087;-84
2023/11/15 05:40:19;;;;;;;0.35;0.35;;;6.80;99.90;;;;;;5039045;28;20041;-83
2023/11/15 05:42:45;;;;;;;0.35;0.35;;;6.80;99.90;;;;;;5020066;28;20045;-84
2023/11/15 05:45:11;;;;;;;0.60;0.60;;;6.90;99.90;;;;;;5041334;28;20571;-84
2023/11/15 05:47:40;;;;;;;0.50;0.50;;;6.90;99.90;;;;;;5038553;28;20062;-85
2023/11/15 05:50:09;;;;;;;0.50;0.50;;;7.00;99.90;;;;;;5016677;28;20089;-87
2023/11/15 05:52:38;;;;;;;0.50;0.50;;;7.00;99.90;;;;;;5040700;28;20115;-87
2023/11/15 05:55:08;;;;;;;0.45;0.45;;;7.10;99.90;;;;;;5057799;28;20041;-87
2023/11/15 05:57:34;;;;;;;0.40;0.40;;;7.20;99.90;;;;;;5034703;28;20159;-87
2023/11/15 06:00:00;;;;;;;;;;;7.20;99.90;;;;;;5021118;28;20125;-86
2023/11/15 06:02:26;;;;;;;0.38;0.38;;;7.20;99.90;;;;;;5017521;28;19964;-86
2023/11/15 06:04:52;;;;;;;;;;;7.30;99.90;;;;;;5039208;28;20044;-85
2023/11/15 06:07:18;;;;;;;0.50;0.50;;;7.30;99.90;;;;;;5058662;28;19920;-86
2023/11/15 06:09:46;;;;;;;;;;;7.30;99.90;;;;;;5012005;28;20175;-84
2023/11/15 06:12:12;;;;;;;;;;;7.30;99.90;;;;;;5050707;28;20281;-83
2023/11/15 06:14:37;;;;;;;0.40;0.40;;;7.40;99.90;;;;;;5026560;28;19924;-85
2023/11/15 06:17:07;;;;;;;0.43;0.43;;;7.10;99.90;;;;;;5043950;28;20045;-85
2023/11/15 06:19:34;;;;;;;0.50;0.50;;;7.40;99.90;;;;;;5060361;28;20044;-84
2023/11/15 06:22:00;;;;;;;0.45;0.45;;;8.30;99.90;;;;;;5063090;28;20045;-84
2023/11/15 06:24:26;;;;;;;0.30;0.30;;;7.40;99.90;;;;;;5031601;28;20123;-82
2023/11/15 06:26:52;;;;;;;0.40;0.40;;;7.90;99.90;;;;;;5037302;28;20720;-83
2023/11/15 06:29:22;;;;;;;0.50;0.50;;;7.40;99.90;;;;;;5048688;28;20033;-85
2023/11/15 06:31:48;;;;;;;0.40;0.40;;;7.40;99.90;;;;;;5043722;28;20037;-81
2023/11/15 06:34:14;;;;;;;;;;;7.50;99.90;;;;;;5037519;28;20032;-85
2023/11/15 06:36:46;;;;;;;0.40;0.40;;;7.50;99.90;;;;;;5036684;28;19971;-82
2023/11/15 06:39:12;;;;;;;0.77;0.77;;;7.50;99.90;;;;;;5021774;28;20072;-83
2023/11/15 06:41:38;;;;;;;;;;;7.50;99.90;;;;;;5003567;28;20045;-86
2023/11/15 06:44:08;;;;;;;0.60;0.60;;;7.60;99.90;;;;;;5066841;28;19972;-85
2023/11/15 06:46:38;;;;;;;0.40;0.40;;;7.50;99.90;;;;;;5048843;28;20072;-86
2023/11/15 06:49:10;;;;;;;0.40;0.40;;;7.50;99.90;;;;;;5048509;28;20033;-88
2023/11/15 06:51:37;;;;;;;0.40;0.40;;;7.50;99.90;;;;;;5038571;28;20037;-87
2023/11/15 06:54:03;;;;;;;0.40;0.40;;;7.50;99.90;;;;;;5051560;28;20044;-89
2023/11/15 06:56:29;;;;;;;0.40;0.40;;;7.50;99.90;;;;;;5026724;28;20497;-87
2023/11/15 06:58:55;;;;;;;0.40;0.40;;;7.50;99.90;;;;;;5037353;28;20116;-90
2023/11/15 07:01:21;;;;;;;0.40;0.40;;;7.50;99.90;;;;;;5048961;28;20100;-89
2023/11/15 07:03:49;;;;;;;0.50;0.50;;;7.50;99.90;;;;;;5028942;28;20452;-87
2023/11/15 07:06:15;;;;;;;0.40;0.40;;;7.50;99.90;;;;;;5042587;28;20041;-87
2023/11/15 07:08:41;;;;;;;;;;;7.50;99.90;;;;;;5068815;28;20136;-90
2023/11/15 07:11:10;;;;;;;0.50;0.50;;;7.50;99.90;;;;;;5055935;28;19960;-87
2023/11/15 07:13:36;;;;;;;0.40;0.40;;;7.50;99.90;;;;;;5030342;28;20055;-87
2023/11/15 07:16:05;;;;;;;0.40;0.40;;;7.40;99.90;;;;;;5071538;28;20040;-87
2023/11/15 07:18:33;;;;;;;0.43;0.43;;;7.40;99.90;;;;;;5048288;28;20063;-89
2023/11/15 07:20:59;;;;;;;0.60;0.60;;;7.50;99.90;;;;;;5035154;28;20079;-85
2023/11/15 07:23:26;;;;;;;0.40;0.40;;;7.50;99.90;;;;;;5057471;28;20040;-85
2023/11/15 07:25:54;;;;;;;0.50;0.50;;;7.50;99.90;;;;;;5038248;28;20052;-87
2023/11/15 07:28:21;;;;;;;0.40;0.40;;;7.80;99.90;;;;;;5039219;28;20051;-88
2023/11/15 07:30:50;;;;;;;0.20;0.20;;;7.50;99.90;;;;;;5037774;28;20038;-88
2023/11/15 07:33:19;;;;;;;0.30;0.30;;;7.60;99.90;;;;;;5069775;28;20045;-88
2023/11/15 07:35:46;;;;;;;0.40;0.40;;;7.60;99.90;;;;;;5028394;28;20041;-89
2023/11/15 07:38:13;;;;;;;0.28;0.28;;;7.90;99.90;;;;;;5025511;28;20044;-87
2023/11/15 07:40:44;;;;;;;0.55;0.55;;;7.90;99.90;;;;;;5053780;28;20407;-86
2023/11/15 07:43:10;;;;;;;0.30;0.30;;;7.90;99.90;;;;;;5063133;28;20045;-87
2023/11/15 07:45:38;;;;;;;0.50;0.50;;;6.10;99.90;;;;;;5034395;28;20053;-86
2023/11/15 07:48:10;;;;;;;0.50;0.50;;;7.70;99.90;;;;;;5018851;28;20045;-86
2023/11/15 07:50:36;;;;;;;0.43;0.43;;;7.70;99.90;;;;;;5018364;28;20123;-86
2023/11/15 07:53:02;;;;;;;0.40;0.40;;;7.60;99.90;;;;;;5037261;28;20040;-85
2023/11/15 07:55:29;;;;;;;0.50;0.50;;;7.60;99.90;;;;;;5028379;28;20071;-85
2023/11/15 07:57:56;;;;;;;0.30;0.30;;;7.60;99.90;;;;;;5034870;28;20183;-84
2023/11/15 08:00:24;;;;;;;0.50;0.35;;;7.60;99.90;;;;;;5024082;28;20056;-85
2023/11/15 08:02:51;;;;;;;0.60;0.60;;;7.70;99.90;;;;;;5030309;28;20045;-82
2023/11/15 08:05:18;;;;;;;2.63;1.30;;;7.70;99.90;;;;;;5037000;28;20494;-85
2023/11/15 08:07:47;;;;;;;0.30;0.30;;;7.80;99.90;;;;;;5024512;28;20485;-85
2023/11/15 08:10:14;;;;;;;1.05;1.05;;;7.80;99.90;;;;;;5029241;28;20044;-84
2023/11/15 08:12:44;;;;;;;0.30;0.30;;;7.90;99.90;;;;;;5035017;28;20115;-83
2023/11/15 08:15:11;;;;;;;0.40;0.40;;;8.00;99.90;;;;;;5062335;28;20045;-86
2023/11/15 08:17:37;;;;;;;0.50;0.50;;;8.10;99.90;;;;;;5041552;28;20045;-86
2023/11/15 08:20:09;;;;;;;0.40;0.40;;;;;;;;;;5036913;28;20048;-83
2023/11/15 08:22:36;;;;;;;0.45;0.45;;;8.30;99.90;;;;;;5046304;28;20056;-82
2023/11/15 08:25:07;;;;;;;0.40;0.40;;;8.30;99.90;;;;;;5023143;28;20041;-84
2023/11/15 08:27:34;;;;;;;0.40;0.40;;;8.30;99.90;;;;;;5040377;28;20040;-84
2023/11/15 08:30:03;;;;;;;0.57;0.57;;;8.30;99.90;;;;;;5025763;28;20083;-83
2023/11/15 08:32:30;;;;;;;0.30;0.30;;;8.20;99.90;;;;;;5019954;28;20064;-84
2023/11/15 08:34:56;;;;;;;0.50;0.50;;;8.30;99.90;;;;;;5023160;28;20060;-84
2023/11/15 08:37:21;;;;;;;0.50;0.50;;;8.30;99.90;;;;;;5053619;28;20045;-81
2023/11/15 08:39:47;;;;;;;0.43;0.43;;;8.30;99.90;;;;;;5039638;28;20068;-84
2023/11/15 08:42:14;;;;;;;0.40;0.40;;;8.30;99.90;;;;;;5049522;28;20090;-82
2023/11/15 08:44:43;;;;;;;0.68;0.68;;;8.40;99.90;;;;;;5035441;28;20056;-84
2023/11/15 08:47:13;;;;;;;0.30;0.30;;;8.40;99.90;;;;;;5018611;28;20047;-85
2023/11/15 08:49:39;;;;;;;2.38;1.30;;;8.60;99.90;;;;;;5062092;28;20429;-83
2023/11/15 08:52:05;;;;;;;0.32;0.32;;;8.50;99.90;;;;;;5032877;28;20045;-83
2023/11/15 08:54:31;;;;;;;0.55;0.55;;;8.60;99.90;;;;;;5029704;28;20070;-82
2023/11/15 08:56:56;;;;;;;0.40;0.40;;;8.60;99.90;;;;;;5033648;28;20045;-83
2023/11/15 08:59:26;;;;;;;0.65;0.45;;;8.70;99.90;;;;;;5039201;28;20037;-84
2023/11/15 09:01:54;;;;;;;0.30;0.30;;;8.70;99.90;;;;;;5002029;28;20705;-83
2023/11/15 09:04:20;;;;;;;0.28;0.28;;;8.70;99.90;;;;;;5009567;28;20049;-83
2023/11/15 09:06:49;;;;;;;0.30;0.30;;;8.70;99.90;;;;;;5014628;28;20048;-83
2023/11/15 09:09:15;;;;;;;0.35;0.35;;;8.70;99.90;;;;;;5040747;28;20753;-84
2023/11/15 09:11:41;;;;;;;0.73;0.73;;;8.80;99.90;;;;;;5020495;28;20068;-84
2023/11/15 09:14:08;;;;;;;0.50;0.50;;;8.90;99.90;;;;;;5048440;28;20045;-83
2023/11/15 09:16:34;;;;;;;0.52;0.50;;;8.90;99.90;;;;;;5046152;28;20056;-84
2023/11/15 09:19:04;;;;;;;0.30;0.30;;;8.90;99.90;;;;;;5018349;28;20033;-84
2023/11/15 09:21:34;;;;;;;0.73;0.73;;;8.90;99.90;;;;;;5023662;28;20036;-82
2023/11/15 09:24:00;;;;;;;0.40;0.40;;;8.90;99.90;;;;;;5048217;28;20040;-83
2023/11/15 09:26:26;;;;;;;0.52;0.52;;;9.00;99.90;;;;;;5040610;28;20045;-85
2023/11/15 09:28:53;;;;;;;0.30;0.30;;;9.10;99.90;;;;;;5035128;28;20060;-83
2023/11/15 09:31:19;;;;;;;0.30;0.30;;;9.20;99.90;;;;;;5019479;28;20068;-83
2023/11/15 09:33:45;;;;;;;0.30;0.30;;;9.30;99.90;;;;;;5066093;28;20051;-82
2023/11/15 09:36:12;;;;;;;0.40;0.40;;;9.30;99.90;;;;;;5054740;28;20056;-83
2023/11/15 09:38:39;;;;;;;0.30;0.30;;;9.40;99.90;;;;;;5059684;28;20041;-82
2023/11/15 09:41:13;;;;;;;0.93;0.93;;;9.50;99.90;;;;;;5053105;28;20053;-83
2023/11/15 09:43:55;;;;;;;0.30;0.30;;;9.50;99.90;;;;;;5048648;28;20040;-83
2023/11/15 09:46:26;;;;;;;3.42;1.30;;;9.60;99.90;;;;;;5032508;28;20043;-81
2023/11/15 09:48:54;;;;;;;0.40;0.40;;;9.70;99.90;;;;;;5053811;28;20048;-80
2023/11/15 09:51:24;;;;;;;1.38;1.27;;;9.70;99.90;;;;;;5003873;28;20389;-82
2023/11/15 09:53:53;;;;;;;0.40;0.40;;;9.80;99.90;;;;;;5054362;28;20099;-82
2023/11/15 09:56:19;;;;;;;0.30;0.30;;;9.70;99.90;;;;;;5042710;28;20044;-82
2023/11/15 09:58:47;;;;;;;0.45;0.45;;;9.70;99.90;;;;;;5040909;28;20123;-81
2023/11/15 10:01:12;;;;;;;0.40;0.40;;;9.80;99.90;;;;;;5027053;28;20522;-81
2023/11/15 10:03:40;;;;;;;0.57;0.57;;;9.90;99.90;;;;;;5021159;28;20064;-82
2023/11/15 10:06:07;;;;;;;0.38;0.38;;;10.00;99.90;;;;;;5026184;28;20036;-82
2023/11/15 10:08:34;;;;;;;0.40;0.40;;;10.10;99.90;;;;;;5033137;28;20120;-82
2023/11/15 10:11:09;;;;;;;0.40;0.40;;;10.20;99.90;;;;;;5034309;28;20053;-82
2023/11/15 10:13:39;;;;;;;0.45;0.45;;;10.20;99.90;;;;;;5032864;28;20196;-81
2023/11/15 10:16:30;;;;;;;0.25;0.25;;;10.20;99.90;;;;;;5027669;28;20123;-83
2023/11/15 10:18:56;;;;;;;0.52;0.52;;;10.30;99.90;;;;;;5032274;28;20124;-83
2023/11/15 10:21:22;;;;;;;0.77;0.77;;;10.40;99.90;;;;;;5053515;28;20060;-81
2023/11/15 10:23:51;;;;;;;;;;;10.30;99.90;;;;;;5057909;28;20482;-81
2023/11/15 10:26:17;;;;;;;9.52;2.05;;;10.20;99.90;;;;;;5032278;28;19916;-81
2023/11/15 10:28:46;;;;;;;0.25;0.25;;;10.10;99.90;;;;;;5039417;28;20379;-82
2023/11/15 10:31:14;;;;;;;0.63;0.63;;;10.10;99.90;;;;;;5015431;28;20042;-82
2023/11/15 10:33:50;;;;;;;1.50;1.48;;;10.10;99.90;;;;;;5041744;28;20036;-83
2023/11/15 10:36:22;;;;;;;0.30;0.30;;;10.10;99.90;;;;;;5053966;28;20049;-83
2023/11/15 10:38:55;;;;;;;0.30;0.30;;;10.20;99.90;;;;;;5049015;28;20395;-84
2023/11/15 10:41:23;;;;;;;0.50;0.50;;;10.30;99.90;;;;;;5046105;28;20041;-84
2023/11/15 10:43:50;;;;;;;0.30;0.30;;;10.40;99.90;;;;;;5063925;28;20045;-83
2023/11/15 10:46:20;;;;;;;0.38;0.38;;;10.50;99.90;;;;;;5038685;28;20041;-81
2023/11/15 10:48:51;;;;;;;0.30;0.30;;;10.50;99.90;;;;;;5056775;28;20479;-82
2023/11/15 10:51:23;;;;;;;1.48;1.13;;;10.50;99.90;;;;;;5040898;28;20041;-84
2023/11/15 10:53:51;;;;;;;0.30;0.30;;;10.40;99.90;;;;;;5057161;28;20488;-83
2023/11/15 10:56:19;;;;;;;0.30;0.30;;;10.40;99.90;;;;;;5041661;28;20056;-83
2023/11/15 10:58:52;;;;;;;0.20;0.20;;;10.30;99.90;;;;;;5056379;28;20756;-84
2023/11/15 11:01:19;;;;;;;0.88;0.82;;;10.10;99.90;;;;;;5053187;28;20029;-85
2023/11/15 11:03:49;;;;;;;0.20;0.20;;;10.00;99.90;;;;;;5035496;28;20037;-85
2023/11/15 11:06:50;;;;;;;1.10;1.10;;;10.00;99.90;;;;;;5025399;28;20045;-83
2023/11/15 11:09:21;;;;;;;0.40;0.40;;;9.80;99.90;;;;;;5040967;28;20049;-83
2023/11/15 11:12:12;;;;;;;1.20;1.10;;;9.70;99.90;;;;;;5056747;28;20071;-83
2023/11/15 11:14:39;;;;;;;0.20;0.20;;;9.60;99.90;;;;;;5040184;28;20060;-84
2023/11/15 11:17:35;;;;;;;0.30;0.30;;;9.60;99.90;;;;;;5036445;28;20042;-85
2023/11/15 11:20:02;;;;;;;0.30;0.30;;;9.50;99.90;;;;;;5042502;28;20049;-82
2023/11/15 11:22:29;;;;;;;0.30;0.30;;;9.50;99.90;;;;;;5060249;28;20056;-86
2023/11/15 11:25:07;;;;;;;0.30;0.30;;;9.40;99.90;;;;;;5043777;28;20095;-83
2023/11/15 11:27:37;;;;;;;0.30;0.30;;;9.40;99.90;;;;;;5053321;28;20037;-83
2023/11/15 11:30:11;;;;;;;1.10;0.60;;;9.30;99.90;;;;;;5015824;28;20116;-82
2023/11/15 11:32:39;;;;;;;0.40;0.40;;;9.30;99.90;;;;;;5044702;28;20477;-83
2023/11/15 11:35:08;;;;;;;0.40;0.40;;;9.30;99.90;;;;;;5037206;28;20053;-84
2023/11/15 11:37:56;;;;;;;0.50;0.50;;;9.30;99.90;;;;;;5045882;28;20053;-84
2023/11/15 11:40:23;;;;;;;0.30;0.30;;;9.30;99.90;;;;;;5048973;28;20486;-86
2023/11/15 11:42:53;;;;;;;0.30;0.30;;;9.30;99.90;;;;;;5066859;28;20037;-84
2023/11/15 11:45:20;;;;;;;0.30;0.30;;;9.30;99.90;;;;;;5044894;28;20510;-84
2023/11/15 11:47:47;;;;;;;0.40;0.40;;;9.30;99.90;;;;;;5057415;28;20045;-84
2023/11/15 11:50:23;;;;;;;0.40;0.40;;;9.40;99.90;;;;;;5034075;28;20494;-84
2023/11/15 11:52:57;;;;;;;0.57;0.57;;;9.40;99.90;;;;;;5058913;28;20127;-83
2023/11/15 11:55:23;;;;;;;0.30;0.30;;;9.50;99.90;;;;;;5048515;28;20371;-84
2023/11/15 11:57:50;;;;;;;0.40;0.40;;;9.50;99.90;;;;;;5038353;28;20041;-83
2023/11/15 12:00:18;;;;;;;0.38;0.38;;;9.60;99.90;;;;;;5056746;28;20041;-83
2023/11/15 12:02:53;;;;;;;0.25;0.25;;;9.50;99.90;;;;;;5036876;28;20057;-83
2023/11/15 12:05:21;;;;;;;0.38;0.38;;;9.50;99.90;;;;;;5025362;28;20045;-84
2023/11/15 12:07:53;;;;;;;0.30;0.30;;;9.50;99.90;;;;;;5029586;28;20047;-84
2023/11/15 12:10:19;;;;;;;0.40;0.40;;;9.40;99.90;;;;;;5039389;28;20041;-85
2023/11/15 12:13:04;;;;;;;0.40;0.40;;;9.40;99.90;;;;;;5067811;28;20088;-85
2023/11/15 12:15:31;;;;;;;0.22;0.22;;;9.40;99.90;;;;;;5043132;28;20112;-84
2023/11/15 12:17:58;;;;;;;0.40;0.40;;;9.40;99.90;;;;;;5053112;28;20057;-85
2023/11/15 12:20:41;;;;;;;0.40;0.40;;;9.40;99.90;;;;;;5052098;28;20049;-85
2023/11/15 12:23:12;;;;;;;0.47;0.47;;;9.40;99.90;;;;;;5034606;28;20056;-83
2023/11/15 12:25:52;;;;;;;0.45;0.45;;;9.40;99.90;;;;;;5039688;28;20053;-84
2023/11/15 12:28:21;;;;;;;0.30;0.30;;;9.40;99.90;;;;;;5069080;28;20130;-83
2023/11/15 12:30:47;;;;;;;0.40;0.40;;;9.40;99.90;;;;;;5025937;28;20032;-84
2023/11/15 12:33:13;;;;;;;1.05;1.05;;;9.40;99.90;;;;;;5028821;28;20041;-85
2023/11/15 12:35:40;;;;;;;0.43;0.43;;;9.50;99.90;;;;;;5055771;28;20033;-83
2023/11/15 12:38:09;;;;;;;0.40;0.40;;;9.50;99.90;;;;;;5052422;28;20071;-85
2023/11/15 12:40:37;;;;;;;0.30;0.30;;;9.50;99.90;;;;;;5036861;28;20079;-83
2023/11/15 12:43:22;;;;;;;0.40;0.40;;;9.40;99.90;;;;;;5045244;28;20071;-85
2023/11/15 12:45:56;;;;;;;0.40;0.40;;;9.40;99.90;;;;;;5036195;28;20031;-83
2023/11/15 12:48:22;;;;;;;0.50;0.50;;;9.40;99.90;;;;;;5056552;28;20037;-84
2023/11/15 12:50:48;;;;;;;0.30;0.30;;;9.50;99.90;;;;;;5073725;28;20041;-84
2023/11/15 12:53:17;;;;;;;1.60;1.50;;;9.50;99.90;;;;;;5061108;28;20040;-82
2023/11/15 12:55:49;;;;;;;0.40;0.40;;;10.50;99.90;;;;;;5033217;28;20399;-84
2023/11/15 12:58:19;;;;;;;0.30;0.30;;;9.70;99.90;;;;;;5045604;28;20041;-82
2023/11/15 13:01:17;;;;;;;0.40;0.40;;;9.80;99.90;;;;;;5054037;28;20036;-84
2023/11/15 13:03:44;;;;;;;0.30;0.30;;;9.90;99.90;;;;;;5029379;28;20048;-85